createdAt,value
2022-09-02T00:00:51.580Z,13.77
2022-09-02T00:03:14.154Z,13.64
2022-09-02T00:05:35.740Z,13.45
2022-09-02T00:07:57.191Z,13.14
2022-09-02T00:10:18.715Z,13.28
2022-09-02T00:12:40.157Z,13.36
2022-09-02T00:15:01.587Z,13.37
2022-09-02T00:17:23.039Z,13.37
2022-09-02T00:19:44.503Z,13.32
2022-09-02T00:22:05.978Z,13.19
2022-09-02T00:24:27.953Z,13.27
2022-09-02T00:26:49.648Z,13.35
2022-09-02T00:29:13.158Z,13.45
2022-09-02T00:31:36.748Z,13.16
2022-09-02T00:33:58.268Z,13.22
2022-09-02T00:36:19.736Z,13.18
2022-09-02T00:38:41.493Z,13.11
2022-09-02T00:41:06.512Z,12.93
2022-09-02T00:43:46.776Z,12.92
2022-09-02T00:46:08.915Z,13.00
2022-09-02T00:48:31.361Z,13.04
2022-09-02T00:50:52.874Z,13.08
2022-09-02T00:53:15.015Z,12.93
2022-09-02T00:55:42.385Z,12.82
2022-09-02T00:58:09.410Z,12.67
2022-09-02T01:00:35.988Z,12.54
2022-09-02T01:03:04.106Z,12.40
2022-09-02T01:05:29.917Z,12.58
2022-09-02T01:07:52.405Z,12.60
2022-09-02T01:10:18.232Z,12.53
2022-09-02T01:12:39.769Z,12.60
2022-09-02T01:15:03.029Z,12.43
2022-09-02T01:17:26.292Z,12.21
2022-09-02T01:19:54.884Z,12.10
2022-09-02T01:22:19.820Z,11.97
2022-09-02T01:24:41.299Z,11.98
2022-09-02T01:27:02.920Z,12.11
2022-09-02T01:29:26.312Z,12.24
2022-09-02T01:31:47.927Z,12.32
2022-09-02T01:34:09.802Z,12.44
2022-09-02T01:36:34.100Z,12.47
2022-09-02T01:38:55.536Z,12.58
2022-09-02T01:41:17.030Z,12.63
2022-09-02T01:43:38.580Z,12.57
2022-09-02T01:46:00.282Z,12.33
2022-09-02T01:48:22.128Z,12.21
2022-09-02T01:50:47.971Z,12.29
2022-09-02T01:53:09.495Z,12.43
2022-09-02T01:55:32.942Z,12.44
2022-09-02T01:57:54.388Z,12.55
2022-09-02T02:00:16.442Z,12.67
2022-09-02T02:02:37.920Z,12.68
2022-09-02T02:04:59.923Z,12.49
2022-09-02T02:07:22.738Z,12.67
2022-09-02T02:09:44.815Z,12.67
2022-09-02T02:12:06.487Z,12.49
2022-09-02T02:14:27.937Z,12.52
2022-09-02T02:16:50.693Z,12.55
2022-09-02T02:19:12.521Z,12.53
2022-09-02T02:21:34.037Z,12.67
2022-09-02T02:23:55.596Z,12.49
2022-09-02T02:26:17.142Z,12.47
2022-09-02T02:28:38.584Z,12.32
2022-09-02T02:31:00.881Z,12.31
2022-09-02T02:33:22.541Z,12.31
2022-09-02T02:35:52.262Z,12.46
2022-09-02T02:38:16.952Z,12.45
2022-09-02T02:40:38.477Z,12.57
2022-09-02T02:43:00.271Z,12.69
2022-09-02T02:45:23.252Z,12.68
2022-09-02T02:47:47.103Z,12.68
2022-09-02T02:50:13.156Z,12.75
2022-09-02T02:52:34.599Z,12.80
2022-09-02T02:54:56.079Z,12.90
2022-09-02T02:57:17.536Z,13.00
2022-09-02T02:59:39.058Z,13.06
2022-09-02T03:02:00.867Z,13.10
2022-09-02T03:04:22.931Z,13.13
2022-09-02T03:06:44.454Z,13.19
2022-09-02T03:09:05.963Z,13.07
2022-09-02T03:11:28.451Z,13.00
2022-09-02T03:13:51.182Z,13.12
2022-09-02T03:16:12.755Z,13.13
2022-09-02T03:18:35.024Z,13.16
2022-09-02T03:20:56.596Z,13.07
2022-09-02T03:23:19.218Z,13.16
2022-09-02T03:25:43.261Z,13.20
2022-09-02T03:28:05.102Z,13.08
2022-09-02T03:30:29.705Z,12.84
2022-09-02T03:32:52.772Z,13.03
2022-09-02T03:35:18.671Z,13.14
2022-09-02T03:37:40.359Z,13.23
2022-09-02T03:40:08.290Z,13.28
2022-09-02T03:42:29.761Z,13.10
2022-09-02T03:44:51.224Z,13.09
2022-09-02T03:47:15.120Z,13.06
2022-09-02T03:49:36.596Z,13.02
2022-09-02T03:51:58.151Z,13.01
2022-09-02T03:54:19.626Z,13.16
2022-09-02T03:56:41.059Z,13.13
2022-09-02T03:59:03.313Z,13.16
2022-09-02T04:01:27.955Z,13.23
2022-09-02T04:03:53.776Z,13.27
2022-09-02T04:06:17.100Z,13.32
2022-09-02T04:08:42.002Z,13.32
2022-09-02T04:11:08.933Z,13.21
2022-09-02T04:13:30.770Z,13.32
2022-09-02T04:15:52.361Z,13.32
2022-09-02T04:18:15.224Z,13.25
2022-09-02T04:20:39.285Z,13.09
2022-09-02T04:23:02.347Z,13.05
2022-09-02T04:25:26.762Z,13.16
2022-09-02T04:27:49.397Z,13.14
2022-09-02T04:30:11.774Z,13.12
2022-09-02T04:32:38.325Z,13.21
2022-09-02T04:35:01.916Z,13.28
2022-09-02T04:37:23.354Z,13.19
2022-09-02T04:39:44.848Z,13.16
2022-09-02T04:42:06.669Z,13.09
2022-09-02T04:44:28.134Z,13.05
2022-09-02T04:46:50.370Z,13.07
2022-09-02T04:49:12.009Z,13.10
2022-09-02T04:51:33.535Z,13.14
2022-09-02T04:53:55.372Z,13.23
2022-09-02T04:56:23.466Z,13.31
2022-09-02T04:58:45.240Z,13.29
2022-09-02T05:01:08.233Z,13.23
2022-09-02T05:03:30.638Z,13.39
2022-09-02T05:06:04.709Z,13.54
2022-09-02T05:08:26.232Z,13.52
2022-09-02T05:10:50.073Z,13.53
2022-09-02T05:13:12.409Z,13.66
2022-09-02T05:15:40.291Z,13.73
2022-09-02T05:18:01.964Z,13.57
2022-09-02T05:20:26.090Z,13.42
2022-09-02T05:22:50.646Z,13.63
2022-09-02T05:25:12.299Z,13.69
2022-09-02T05:27:33.814Z,13.67
2022-09-02T05:29:56.809Z,13.87
2022-09-02T05:32:18.273Z,13.96
2022-09-02T05:34:39.858Z,13.98
2022-09-02T05:37:02.519Z,14.06
2022-09-02T05:39:23.979Z,14.14
2022-09-02T05:41:45.410Z,14.22
2022-09-02T05:44:07.035Z,14.39
2022-09-02T05:46:29.530Z,14.62
2022-09-02T05:49:07.364Z,14.70
2022-09-02T05:51:28.909Z,14.62
2022-09-02T05:53:55.841Z,14.62
2022-09-02T05:56:17.272Z,14.75
2022-09-02T05:58:38.847Z,14.78
2022-09-02T06:01:00.269Z,14.92
2022-09-02T06:03:21.769Z,15.16
2022-09-02T06:05:53.850Z,15.31
2022-09-02T06:08:15.332Z,15.27
2022-09-02T06:10:42.169Z,15.28
2022-09-02T06:13:03.674Z,15.45
2022-09-02T06:15:27.648Z,15.47
2022-09-02T06:17:49.117Z,15.77
2022-09-02T06:20:10.854Z,15.95
2022-09-02T06:22:33.417Z,15.97
2022-09-02T06:24:54.855Z,16.02
2022-09-02T06:27:16.328Z,15.94
2022-09-02T06:29:37.851Z,15.96
2022-09-02T06:31:59.398Z,16.11
2022-09-02T06:34:22.658Z,16.28
2022-09-02T06:36:47.465Z,16.35
2022-09-02T06:39:12.867Z,16.65
2022-09-02T06:41:34.841Z,16.91
2022-09-02T06:43:58.322Z,16.88
2022-09-02T06:46:28.147Z,17.06
2022-09-02T06:48:50.285Z,17.32
2022-09-02T06:51:24.217Z,17.64
2022-09-02T06:53:46.041Z,17.79
2022-09-02T06:56:08.022Z,18.03
2022-09-02T06:58:29.471Z,18.03
2022-09-02T07:00:50.953Z,17.94
2022-09-02T07:03:31.114Z,18.27
2022-09-02T07:06:09.577Z,18.49
2022-09-02T07:08:31.908Z,18.68
2022-09-02T07:10:53.373Z,18.86
2022-09-02T07:13:14.872Z,18.96
2022-09-02T07:15:36.433Z,18.94
2022-09-02T07:17:57.917Z,19.04
2022-09-02T07:20:19.428Z,19.19
2022-09-02T07:22:40.907Z,19.36
2022-09-02T07:25:02.646Z,19.33
2022-09-02T07:27:24.089Z,19.20
2022-09-02T07:29:48.451Z,19.23
2022-09-02T07:32:10.111Z,19.39
2022-09-02T07:34:31.597Z,19.47
2022-09-02T07:36:53.290Z,19.55
2022-09-02T07:39:16.268Z,19.64
2022-09-02T07:41:39.810Z,19.50
2022-09-02T07:44:01.812Z,19.51
2022-09-02T07:46:23.442Z,19.56
2022-09-02T07:48:45.158Z,19.61
2022-09-02T07:51:07.701Z,19.78
2022-09-02T07:53:31.592Z,19.76
2022-09-02T07:55:53.249Z,19.74
2022-09-02T07:58:17.331Z,19.93
2022-09-02T08:00:39.940Z,19.94
2022-09-02T08:03:02.099Z,19.92
2022-09-02T08:05:23.874Z,20.23
2022-09-02T08:07:45.381Z,20.18
2022-09-02T08:10:10.631Z,20.27
2022-09-02T08:12:32.130Z,20.44
2022-09-02T08:14:53.870Z,20.33
2022-09-02T08:17:15.425Z,20.42
2022-09-02T08:19:36.876Z,20.51
2022-09-02T08:22:04.390Z,20.71
2022-09-02T08:24:25.830Z,20.82
2022-09-02T08:26:47.313Z,20.85
2022-09-02T08:29:09.614Z,21.12
2022-09-02T08:31:32.204Z,21.22
2022-09-02T08:33:53.710Z,21.47
2022-09-02T08:36:15.473Z,21.74
2022-09-02T08:38:36.997Z,21.66
2022-09-02T08:40:59.613Z,21.89
2022-09-02T08:43:31.374Z,22.14
2022-09-02T08:45:56.121Z,22.41
2022-09-02T08:48:24.690Z,22.45
2022-09-02T08:50:47.654Z,22.50
2022-09-02T08:53:27.632Z,22.42
2022-09-02T08:55:54.945Z,22.35
2022-09-02T08:58:23.150Z,22.46
2022-09-02T09:00:50.548Z,22.60
2022-09-02T09:03:30.432Z,22.70
2022-09-02T09:06:00.549Z,22.89
2022-09-02T09:08:43.618Z,22.98
2022-09-02T09:11:10.737Z,23.19
2022-09-02T09:13:47.351Z,23.08
2022-09-02T09:16:17.945Z,23.28
2022-09-02T09:18:47.011Z,23.38
2022-09-02T09:21:11.463Z,23.33
2022-09-02T09:23:36.108Z,23.33
2022-09-02T09:26:05.493Z,23.72
2022-09-02T09:28:27.809Z,23.97
2022-09-02T09:30:49.412Z,24.06
2022-09-02T09:33:17.811Z,23.89
2022-09-02T09:35:51.612Z,24.19
2022-09-02T09:38:14.213Z,24.44
2022-09-02T09:40:38.317Z,24.87
2022-09-02T09:43:24.511Z,24.73
2022-09-02T09:45:48.012Z,25.13
2022-09-02T09:48:27.587Z,25.30
2022-09-02T09:51:10.379Z,25.55
2022-09-02T09:53:36.855Z,25.64
2022-09-02T09:56:07.760Z,25.67
2022-09-02T09:58:34.306Z,26.05
2022-09-02T10:01:00.428Z,26.11
2022-09-02T10:03:27.403Z,26.16
2022-09-02T10:05:59.926Z,26.19
2022-09-02T10:08:24.312Z,26.52
2022-09-02T10:11:05.363Z,26.85
2022-09-02T10:13:32.812Z,26.87
2022-09-02T10:16:24.745Z,26.77
2022-09-02T10:18:51.423Z,26.72
2022-09-02T10:21:34.582Z,26.95
2022-09-02T10:24:10.841Z,27.35
2022-09-02T10:26:52.392Z,27.21
2022-09-02T10:29:25.968Z,27.37
2022-09-02T10:31:57.157Z,27.12
2022-09-02T10:34:38.270Z,27.33
2022-09-02T10:37:12.640Z,27.45
2022-09-02T10:39:56.342Z,27.36
2022-09-02T10:42:54.791Z,27.20
2022-09-02T10:45:24.267Z,27.36
2022-09-02T10:48:09.341Z,27.48
2022-09-02T10:50:46.742Z,27.65
2022-09-02T10:53:27.136Z,27.52
2022-09-02T10:55:54.644Z,27.85
2022-09-02T10:58:22.308Z,27.80
2022-09-02T11:00:49.190Z,27.67
2022-09-02T11:03:21.451Z,27.34
2022-09-02T11:05:48.046Z,27.64
2022-09-02T11:08:17.692Z,27.86
2022-09-02T11:10:45.590Z,28.08
2022-09-02T11:13:20.577Z,28.42
2022-09-02T11:15:51.820Z,28.49
2022-09-02T11:18:35.665Z,28.87
2022-09-02T11:21:10.110Z,29.29
2022-09-02T11:23:46.504Z,29.40
2022-09-02T11:26:17.702Z,29.30
2022-09-02T11:28:50.184Z,29.17
2022-09-02T11:31:26.072Z,28.88
2022-09-02T11:36:33.388Z,28.42
2022-09-02T11:39:04.177Z,28.82
2022-09-02T11:42:13.269Z,28.95
2022-09-02T11:44:53.191Z,29.17
2022-09-02T11:47:45.804Z,29.28
2022-09-02T11:50:46.137Z,29.36
2022-09-02T11:53:22.443Z,29.69
2022-09-02T11:55:52.039Z,29.71
2022-09-02T11:58:40.191Z,29.52
2022-09-02T12:01:27.915Z,29.43
2022-09-02T12:06:58.571Z,28.88
2022-09-02T12:10:06.147Z,29.10
2022-09-02T12:12:36.818Z,29.49
2022-09-02T12:14:58.705Z,29.56
2022-09-02T12:17:49.756Z,29.57
2022-09-02T12:20:37.233Z,29.62
2022-09-02T12:22:58.787Z,29.71
2022-09-02T12:25:27.344Z,29.48
2022-09-02T12:27:50.085Z,30.03
2022-09-02T12:30:12.802Z,30.53
2022-09-02T12:32:46.175Z,30.86
2022-09-02T12:35:11.396Z,30.99
2022-09-02T12:38:11.315Z,30.57
2022-09-02T12:40:39.437Z,31.08
2022-09-02T12:43:16.651Z,30.78
2022-09-02T12:45:43.549Z,30.47
2022-09-02T12:48:24.918Z,30.55
2022-09-02T12:51:00.375Z,30.95
2022-09-02T12:53:29.786Z,32.26
2022-09-02T12:55:59.675Z,33.34
2022-09-02T12:58:22.810Z,34.32
2022-09-02T13:00:49.999Z,35.33
2022-09-02T13:03:35.873Z,35.25
2022-09-02T13:06:12.312Z,36.38
2022-09-02T13:08:52.336Z,37.08
2022-09-02T13:11:35.324Z,38.55
2022-09-02T13:14:19.625Z,39.23
2022-09-02T13:17:37.467Z,39.28
2022-09-02T13:20:27.152Z,40.62
2022-09-02T13:23:35.249Z,39.55
2022-09-02T13:26:02.581Z,39.79
2022-09-02T13:28:53.170Z,39.92
2022-09-02T13:31:20.162Z,39.11
2022-09-02T13:33:43.424Z,38.05
2022-09-02T13:36:06.038Z,38.84
2022-09-02T13:38:30.100Z,39.01
2022-09-02T13:40:52.220Z,37.87
2022-09-02T13:43:13.592Z,36.99
2022-09-02T13:45:35.822Z,35.90
2022-09-02T13:48:09.853Z,34.75
2022-09-02T13:50:33.064Z,34.17
2022-09-02T13:55:46.941Z,33.53
2022-09-02T13:58:22.150Z,33.53
2022-09-02T14:00:43.717Z,33.04
2022-09-02T14:03:06.904Z,32.44
2022-09-02T14:05:30.142Z,32.81
2022-09-02T14:07:54.659Z,32.29
2022-09-02T14:10:18.679Z,32.34
2022-09-02T14:12:40.769Z,32.08
2022-09-02T14:15:03.084Z,32.57
2022-09-02T14:17:26.583Z,32.72
2022-09-02T14:19:48.704Z,32.42
2022-09-02T14:22:23.131Z,32.82
2022-09-02T14:24:44.788Z,33.56
2022-09-02T14:27:17.184Z,34.10
2022-09-02T14:29:44.740Z,34.23
2022-09-02T14:32:12.480Z,34.60
2022-09-02T14:34:42.671Z,35.67
2022-09-02T14:37:27.004Z,35.82
2022-09-02T14:40:13.220Z,36.12
2022-09-02T14:42:45.044Z,36.21
2022-09-02T14:45:10.958Z,37.30
2022-09-02T14:47:37.938Z,36.87
2022-09-02T14:49:59.520Z,37.15
2022-09-02T14:52:30.098Z,36.12
2022-09-02T14:54:53.800Z,35.86
2022-09-02T14:57:20.971Z,35.33
2022-09-02T14:59:42.420Z,35.36
2022-09-02T15:02:04.024Z,35.01
2022-09-02T15:04:25.764Z,34.17
2022-09-02T15:06:48.404Z,33.41
2022-09-02T15:09:10.296Z,33.13
2022-09-02T15:11:31.746Z,32.78
2022-09-02T15:13:53.210Z,32.41
2022-09-02T15:16:15.819Z,32.11
2022-09-02T15:18:37.267Z,31.67
2022-09-02T15:20:58.712Z,31.18
2022-09-02T15:23:20.541Z,31.15
2022-09-02T15:25:42.344Z,31.00
2022-09-02T15:28:03.810Z,31.21
2022-09-02T15:30:25.488Z,31.17
2022-09-02T15:32:46.985Z,30.78
2022-09-02T15:35:09.437Z,30.63
2022-09-02T15:37:30.894Z,30.22
2022-09-02T15:39:52.388Z,29.92
2022-09-02T15:42:14.828Z,29.85
2022-09-02T15:44:36.570Z,29.80
2022-09-02T15:46:59.166Z,30.19
2022-09-02T15:49:21.658Z,30.17
2022-09-02T15:51:45.159Z,30.71
2022-09-02T15:54:09.212Z,30.73
2022-09-02T15:56:32.458Z,31.14
2022-09-02T15:58:58.751Z,31.82
2022-09-02T16:01:23.358Z,31.60
2022-09-02T16:03:46.633Z,31.54
2022-09-02T16:06:08.512Z,31.20
2022-09-02T16:08:29.996Z,31.42
2022-09-02T16:10:51.432Z,31.39
2022-09-02T16:13:13.105Z,32.12
2022-09-02T16:15:34.553Z,32.32
2022-09-02T16:17:56.016Z,31.80
2022-09-02T16:20:21.063Z,32.24
2022-09-02T16:22:42.838Z,32.28
2022-09-02T16:25:04.804Z,32.25
2022-09-02T16:27:44.962Z,32.11
2022-09-02T16:30:06.954Z,31.86
2022-09-02T16:32:28.412Z,32.11
2022-09-02T16:34:49.843Z,31.81
2022-09-02T16:37:11.291Z,31.57
2022-09-02T16:39:32.729Z,31.52
2022-09-02T16:41:54.530Z,31.24
2022-09-02T16:44:17.401Z,30.99
2022-09-02T16:46:42.314Z,30.90
2022-09-02T16:49:04.046Z,30.57
2022-09-02T16:51:27.734Z,30.36
2022-09-02T16:53:57.392Z,30.23
2022-09-02T16:56:20.183Z,29.81
2022-09-02T16:58:41.691Z,29.56
2022-09-02T17:01:07.445Z,29.44
2022-09-02T17:03:29.011Z,29.51
2022-09-02T17:05:50.489Z,29.24
2022-09-02T17:08:11.945Z,29.00
2022-09-02T17:10:35.023Z,28.75
2022-09-02T17:12:57.598Z,28.29
2022-09-02T17:15:19.035Z,27.89
2022-09-02T17:17:40.567Z,27.65
2022-09-02T17:20:02.148Z,27.38
2022-09-02T17:22:23.779Z,27.31
2022-09-02T17:24:53.547Z,26.94
2022-09-02T17:27:15.272Z,26.64
2022-09-02T17:29:52.203Z,26.34
2022-09-02T17:32:13.776Z,26.19
2022-09-02T17:34:36.659Z,26.04
2022-09-02T17:36:58.127Z,26.21
2022-09-02T17:39:19.892Z,25.89
2022-09-02T17:41:57.708Z,25.83
2022-09-02T17:44:19.250Z,25.64
2022-09-02T17:46:42.003Z,25.24
2022-09-02T17:49:16.797Z,25.24
2022-09-02T17:51:42.778Z,25.15
2022-09-02T17:54:05.003Z,25.18
2022-09-02T17:56:47.810Z,25.05
2022-09-02T17:59:30.359Z,25.00
2022-09-02T18:02:09.343Z,24.77
2022-09-02T18:04:55.927Z,24.56
2022-09-02T18:07:41.712Z,24.40
2022-09-02T18:10:03.512Z,24.37
2022-09-02T18:12:28.375Z,24.29
2022-09-02T18:15:01.924Z,24.21
2022-09-02T18:17:38.562Z,24.10
2022-09-02T18:20:18.647Z,24.03
2022-09-02T18:22:55.562Z,23.92
2022-09-02T18:25:44.247Z,23.74
2022-09-02T18:28:17.428Z,23.64
2022-09-02T18:30:54.859Z,23.58
2022-09-02T18:33:50.659Z,23.41
2022-09-02T18:36:42.823Z,23.27
2022-09-02T18:39:27.147Z,23.13
2022-09-02T18:42:17.653Z,23.04
2022-09-02T18:44:48.382Z,22.86
2022-09-02T18:47:14.965Z,22.76
2022-09-02T18:49:38.984Z,22.64
2022-09-02T18:52:04.326Z,22.66
2022-09-02T18:54:38.818Z,22.58
2022-09-02T18:57:05.329Z,22.46
2022-09-02T18:59:44.805Z,22.41
2022-09-02T19:02:20.291Z,22.40
2022-09-02T19:04:42.480Z,22.22
2022-09-02T19:07:24.025Z,22.20
2022-09-02T19:09:46.633Z,22.02
2022-09-02T19:12:10.719Z,21.99
2022-09-02T19:14:32.737Z,21.90
2022-09-02T19:16:58.438Z,21.79
2022-09-02T19:19:20.421Z,21.67
2022-09-02T19:21:46.118Z,21.65
2022-09-02T19:24:12.037Z,21.64
2022-09-02T19:26:33.915Z,21.60
2022-09-02T19:28:56.110Z,21.45
2022-09-02T19:31:23.901Z,21.40
2022-09-02T19:33:45.420Z,21.31
2022-09-02T19:36:08.378Z,21.21
2022-09-02T19:38:29.820Z,21.23
2022-09-02T19:40:51.411Z,21.17
2022-09-02T19:43:16.018Z,21.08
2022-09-02T19:45:38.994Z,21.03
2022-09-02T19:48:07.008Z,20.99
2022-09-02T19:50:29.726Z,20.97
2022-09-02T19:52:51.173Z,20.89
2022-09-02T19:55:15.654Z,20.80
2022-09-02T19:57:37.217Z,20.81
2022-09-02T19:59:58.688Z,20.79
2022-09-02T20:02:20.263Z,20.70
2022-09-02T20:04:41.857Z,20.66
2022-09-02T20:07:03.331Z,20.57
2022-09-02T20:09:25.706Z,20.54
2022-09-02T20:11:50.713Z,20.52
2022-09-02T20:14:12.244Z,20.40
2022-09-02T20:16:34.356Z,20.34
2022-09-02T20:18:56.883Z,20.34
2022-09-02T20:21:26.014Z,20.24
2022-09-02T20:23:47.758Z,20.18
2022-09-02T20:26:41.125Z,20.11
2022-09-02T20:29:28.288Z,20.08
2022-09-02T20:32:08.476Z,20.01
2022-09-02T20:34:29.927Z,19.91
2022-09-02T20:37:33.512Z,19.85
2022-09-02T20:40:18.607Z,19.75
2022-09-02T20:42:49.074Z,19.67
2022-09-02T20:45:15.973Z,19.59
2022-09-02T20:47:48.674Z,19.51
2022-09-02T20:50:22.030Z,19.48
2022-09-02T20:53:06.603Z,19.36
2022-09-02T20:55:39.049Z,19.34
2022-09-02T20:58:19.303Z,19.30
2022-09-02T21:01:01.323Z,19.21
2022-09-02T21:03:25.915Z,19.21
2022-09-02T21:05:52.857Z,19.12
2022-09-02T21:08:32.858Z,19.18
2022-09-02T21:11:00.234Z,19.10
2022-09-02T21:13:26.629Z,19.07
2022-09-02T21:15:52.884Z,19.00
2022-09-02T21:18:34.254Z,18.94
2022-09-02T21:21:03.717Z,18.82
2022-09-02T21:23:30.376Z,18.74
2022-09-02T21:25:58.207Z,18.67
2022-09-02T21:28:25.388Z,18.63
2022-09-02T21:30:52.317Z,18.65
2022-09-02T21:33:16.623Z,18.62
2022-09-02T21:35:41.564Z,18.70
2022-09-02T21:38:09.943Z,18.75
2022-09-02T21:40:53.563Z,18.62
2022-09-02T21:43:31.351Z,18.52
2022-09-02T21:46:16.478Z,18.59
2022-09-02T21:48:53.420Z,18.39
2022-09-02T21:51:14.855Z,18.35
2022-09-02T21:54:12.960Z,18.24
2022-09-02T21:56:58.671Z,18.02
2022-09-02T21:59:50.148Z,17.95
2022-09-02T22:02:29.546Z,17.76
2022-09-02T22:05:27.925Z,17.74
2022-09-02T22:07:57.992Z,17.74
2022-09-02T22:10:51.033Z,17.47
2022-09-02T22:13:12.737Z,17.30
2022-09-02T22:15:55.866Z,17.28
2022-09-02T22:18:24.801Z,17.17
2022-09-02T22:20:50.929Z,17.19
2022-09-02T22:23:23.798Z,17.20
2022-09-02T22:25:45.302Z,17.20
2022-09-02T22:28:12.602Z,17.20
2022-09-02T22:30:38.934Z,17.14
2022-09-02T22:33:08.035Z,17.10
2022-09-02T22:35:56.020Z,16.94
2022-09-02T22:38:30.815Z,16.92
2022-09-02T22:40:59.994Z,16.77
2022-09-02T22:43:28.294Z,16.77
2022-09-02T22:46:25.075Z,16.64
2022-09-02T22:49:14.502Z,16.54
2022-09-02T22:52:11.194Z,16.51
2022-09-02T22:54:32.673Z,16.42
2022-09-02T22:57:12.664Z,16.36
2022-09-02T23:00:01.695Z,16.34
2022-09-02T23:02:31.387Z,16.00
2022-09-02T23:05:39.400Z,16.05
2022-09-02T23:08:01.554Z,16.08
2022-09-02T23:10:26.918Z,16.12
2022-09-02T23:13:20.197Z,16.08
2022-09-02T23:16:04.691Z,16.02
2022-09-02T23:18:40.293Z,16.00
2022-09-02T23:21:32.761Z,16.03
2022-09-02T23:24:03.237Z,15.87
2022-09-02T23:26:36.218Z,15.78
2022-09-02T23:29:10.464Z,15.72
2022-09-02T23:31:58.245Z,15.69
2022-09-02T23:34:37.345Z,15.61
2022-09-02T23:37:42.340Z,15.39
2022-09-02T23:40:30.838Z,15.30
2022-09-02T23:42:53.789Z,15.29
2022-09-02T23:45:25.263Z,15.31
2022-09-02T23:48:10.767Z,15.26
2022-09-02T23:50:50.260Z,15.10
2022-09-02T23:53:23.925Z,15.07
2022-09-02T23:55:58.570Z,15.09
2022-09-02T23:58:29.779Z,15.11
